createdAt,value
2018-12-10T00:00:46.669Z,940.41
2018-12-10T00:01:46.663Z,940.32
2018-12-10T00:02:46.641Z,940.29
2018-12-10T00:03:46.648Z,940.31
2018-12-10T00:04:46.642Z,940.39
2018-12-10T00:05:46.623Z,940.47
2018-12-10T00:06:46.682Z,940.28
2018-12-10T00:07:46.593Z,940.35
2018-12-10T00:08:46.713Z,940.35
2018-12-10T00:09:46.570Z,940.43
2018-12-10T00:10:46.551Z,940.49
2018-12-10T00:11:46.559Z,940.28
2018-12-10T00:12:46.534Z,940.31
2018-12-10T00:13:46.511Z,940.33
2018-12-10T00:14:46.548Z,940.40
2018-12-10T00:15:46.500Z,940.36
2018-12-10T00:16:46.527Z,940.48
2018-12-10T00:17:46.470Z,940.40
2018-12-10T00:18:46.451Z,940.36
2018-12-10T00:19:46.442Z,940.38
2018-12-10T00:20:46.453Z,940.52
2018-12-10T00:21:46.422Z,940.54
2018-12-10T00:22:46.486Z,940.56
2018-12-10T00:23:46.400Z,940.53
2018-12-10T00:24:46.382Z,940.52
2018-12-10T00:25:46.399Z,940.55
2018-12-10T00:26:46.370Z,940.48
2018-12-10T00:27:46.350Z,940.61
2018-12-10T00:28:46.372Z,940.67
2018-12-10T00:29:46.319Z,940.51
2018-12-10T00:30:46.326Z,940.65
2018-12-10T00:31:46.340Z,940.60
2018-12-10T00:32:46.295Z,940.65
2018-12-10T00:33:46.280Z,940.59
2018-12-10T00:34:46.270Z,940.65
2018-12-10T00:35:46.254Z,940.54
2018-12-10T00:36:46.272Z,940.66
2018-12-10T00:37:46.247Z,940.51
2018-12-10T00:38:46.239Z,940.67
2018-12-10T00:39:46.217Z,940.62
2018-12-10T00:40:46.199Z,940.62
2018-12-10T00:41:46.190Z,940.73
2018-12-10T00:42:46.257Z,940.79
2018-12-10T00:43:46.166Z,940.73
2018-12-10T00:44:46.164Z,940.76
2018-12-10T00:45:46.135Z,940.75
2018-12-10T00:46:46.140Z,940.88
2018-12-10T00:47:46.123Z,940.76
2018-12-10T00:48:46.151Z,940.80
2018-12-10T00:49:46.157Z,940.89
2018-12-10T00:50:46.130Z,940.75
2018-12-10T00:51:46.078Z,940.82
2018-12-10T00:52:46.057Z,940.83
2018-12-10T00:53:46.104Z,941.02
2018-12-10T00:54:46.055Z,940.89
2018-12-10T00:55:46.026Z,941.01
2018-12-10T00:56:46.052Z,940.92
2018-12-10T00:57:46.011Z,940.87
2018-12-10T00:58:45.992Z,941.01
2018-12-10T00:59:46.001Z,940.95
2018-12-10T01:00:45.976Z,940.92
2018-12-10T01:01:46.012Z,940.96
2018-12-10T01:02:45.985Z,940.98
2018-12-10T01:03:45.946Z,940.93
2018-12-10T01:04:45.931Z,940.93
2018-12-10T01:05:45.944Z,940.98
2018-12-10T01:06:45.935Z,941.03
2018-12-10T01:07:45.890Z,941.01
2018-12-10T01:08:45.877Z,940.99
2018-12-10T01:09:45.889Z,940.99
2018-12-10T01:10:46.428Z,941.10
2018-12-10T01:11:45.877Z,941.11
2018-12-10T01:12:45.841Z,941.10
2018-12-10T01:13:45.830Z,941.06
2018-12-10T01:14:45.831Z,941.09
2018-12-10T01:15:45.804Z,941.14
2018-12-10T01:16:45.813Z,941.28
2018-12-10T01:17:45.794Z,941.53
2018-12-10T01:18:45.765Z,941.38
2018-12-10T01:19:45.800Z,941.26
2018-12-10T01:20:45.740Z,941.38
2018-12-10T01:21:45.739Z,941.35
2018-12-10T01:23:06.752Z,941.39
2018-12-10T01:23:45.719Z,941.47
2018-12-10T01:24:45.697Z,941.47
2018-12-10T01:25:45.691Z,941.39
2018-12-10T01:26:45.699Z,941.54
2018-12-10T01:27:45.665Z,941.55
2018-12-10T01:28:45.671Z,941.59
2018-12-10T01:29:45.650Z,941.46
2018-12-10T01:30:45.633Z,941.49
2018-12-10T01:31:45.622Z,941.50
2018-12-10T01:32:45.605Z,941.57
2018-12-10T01:33:45.594Z,941.55
2018-12-10T01:34:45.624Z,941.53
2018-12-10T01:35:45.571Z,941.54
2018-12-10T01:36:45.567Z,941.52
2018-12-10T01:38:57.372Z,941.56
2018-12-10T01:39:57.298Z,941.60
2018-12-10T01:40:57.228Z,941.42
2018-12-10T01:41:57.295Z,941.49
2018-12-10T01:42:57.175Z,941.64
2018-12-10T01:43:57.129Z,941.79
2018-12-10T01:44:57.154Z,941.63
2018-12-10T01:45:57.143Z,941.66
2018-12-10T01:46:57.104Z,941.70
2018-12-10T01:47:57.118Z,941.65
2018-12-10T01:48:57.079Z,941.71
2018-12-10T01:49:57.061Z,941.71
2018-12-10T01:50:57.055Z,941.71
2018-12-10T01:51:57.079Z,941.63
2018-12-10T01:52:57.113Z,941.61
2018-12-10T01:53:57.018Z,941.53
2018-12-10T01:54:56.999Z,941.67
2018-12-10T01:55:57.000Z,941.65
2018-12-10T01:56:57.020Z,941.62
2018-12-10T01:57:56.981Z,941.58
2018-12-10T01:58:56.964Z,941.78
2018-12-10T01:59:56.967Z,941.64
2018-12-10T02:00:56.946Z,941.70
2018-12-10T02:01:56.934Z,941.68
2018-12-10T02:02:56.937Z,941.57
2018-12-10T02:03:56.900Z,941.64
2018-12-10T02:04:56.896Z,941.71
2018-12-10T02:05:57.502Z,941.64
2018-12-10T02:06:56.904Z,941.70
2018-12-10T02:07:56.875Z,941.72
2018-12-10T02:08:56.861Z,941.69
2018-12-10T02:10:07.590Z,941.68
2018-12-10T02:10:57.006Z,941.73
2018-12-10T02:11:56.931Z,941.73
2018-12-10T02:12:56.876Z,941.78
2018-12-10T02:13:56.938Z,941.82
2018-12-10T02:14:56.795Z,941.79
2018-12-10T02:15:56.779Z,941.79
2018-12-10T02:16:56.811Z,941.74
2018-12-10T02:17:56.743Z,941.71
2018-12-10T02:18:56.743Z,941.83
2018-12-10T02:19:56.737Z,941.76
2018-12-10T02:20:56.707Z,941.75
2018-12-10T02:21:56.700Z,941.79
2018-12-10T02:22:56.716Z,941.75
2018-12-10T02:23:56.688Z,941.78
2018-12-10T02:25:06.563Z,941.74
2018-12-10T02:25:56.773Z,941.74
2018-12-10T02:26:56.723Z,941.75
2018-12-10T02:27:56.715Z,941.73
2018-12-10T02:28:56.773Z,941.77
2018-12-10T02:29:56.631Z,941.70
2018-12-10T02:30:56.612Z,941.77
2018-12-10T02:31:56.600Z,941.82
2018-12-10T02:32:56.575Z,941.81
2018-12-10T02:33:56.607Z,941.86
2018-12-10T02:34:56.553Z,941.89
2018-12-10T02:35:56.542Z,941.75
2018-12-10T02:36:56.536Z,941.83
2018-12-10T02:37:56.569Z,941.84
2018-12-10T02:38:57.660Z,941.86
2018-12-10T02:39:56.509Z,941.84
2018-12-10T02:40:56.491Z,941.86
2018-12-10T02:41:56.487Z,941.95
2018-12-10T02:42:56.466Z,941.86
2018-12-10T02:43:56.469Z,941.83
2018-12-10T02:44:56.484Z,941.91
2018-12-10T02:45:56.427Z,941.83
2018-12-10T02:46:56.489Z,941.85
2018-12-10T02:47:56.417Z,941.87
2018-12-10T02:48:56.417Z,941.98
2018-12-10T02:49:57.405Z,941.88
2018-12-10T02:50:56.377Z,941.93
2018-12-10T02:51:56.362Z,942.02
2018-12-10T02:52:56.395Z,942.09
2018-12-10T02:53:56.350Z,941.95
2018-12-10T02:54:56.352Z,941.95
2018-12-10T02:55:56.330Z,942.09
2018-12-10T02:56:56.313Z,942.12
2018-12-10T02:57:56.321Z,942.13
2018-12-10T02:58:56.332Z,942.11
2018-12-10T02:59:56.278Z,942.27
2018-12-10T03:00:56.297Z,942.10
2018-12-10T03:01:56.252Z,942.32
2018-12-10T03:02:56.271Z,942.27
2018-12-10T03:03:56.223Z,942.33
2018-12-10T03:04:56.219Z,942.33
2018-12-10T03:05:56.201Z,942.32
2018-12-10T03:06:56.228Z,942.27
2018-12-10T03:07:56.210Z,942.40
2018-12-10T03:08:56.177Z,942.41
2018-12-10T03:09:56.164Z,942.28
2018-12-10T03:10:56.164Z,942.44
2018-12-10T03:11:56.148Z,942.38
2018-12-10T03:12:56.140Z,942.42
2018-12-10T03:13:56.142Z,942.42
2018-12-10T03:14:56.107Z,942.36
2018-12-10T03:15:56.102Z,942.41
2018-12-10T03:16:56.086Z,942.46
2018-12-10T03:17:56.091Z,942.53
2018-12-10T03:18:56.059Z,942.49
2018-12-10T03:19:56.082Z,942.50
2018-12-10T03:20:56.047Z,942.50
2018-12-10T03:21:56.028Z,942.56
2018-12-10T03:22:56.019Z,942.56
2018-12-10T03:23:56.349Z,942.62
2018-12-10T03:24:56.623Z,942.52
2018-12-10T03:25:55.993Z,942.57
2018-12-10T03:26:55.990Z,942.58
2018-12-10T03:27:55.993Z,942.59
2018-12-10T03:28:55.953Z,942.65
2018-12-10T03:29:55.970Z,942.62
2018-12-10T03:30:55.974Z,942.60
2018-12-10T03:31:55.947Z,942.60
2018-12-10T03:32:55.925Z,942.66
2018-12-10T03:33:55.903Z,942.62
2018-12-10T03:34:55.922Z,942.74
2018-12-10T03:35:55.895Z,942.54
2018-12-10T03:36:55.876Z,942.67
2018-12-10T03:37:55.893Z,942.75
2018-12-10T03:38:55.834Z,942.74
2018-12-10T03:39:55.838Z,942.75
2018-12-10T03:40:55.846Z,942.69
2018-12-10T03:41:55.834Z,942.70
2018-12-10T03:42:55.839Z,942.75
2018-12-10T03:43:56.794Z,942.80
2018-12-10T03:44:55.814Z,942.84
2018-12-10T03:45:55.755Z,942.70
2018-12-10T03:46:55.848Z,942.86
2018-12-10T03:47:55.745Z,942.72
2018-12-10T03:48:55.749Z,942.98
2018-12-10T03:49:55.744Z,942.96
2018-12-10T03:51:07.259Z,942.86
2018-12-10T03:51:56.788Z,942.87
2018-12-10T03:52:55.785Z,942.78
2018-12-10T03:53:55.848Z,942.91
2018-12-10T03:54:55.723Z,942.82
2018-12-10T03:55:55.651Z,942.82
2018-12-10T03:57:07.202Z,942.78
2018-12-10T03:59:08.436Z,942.83
2018-12-10T04:00:08.514Z,942.78
2018-12-10T04:01:08.392Z,942.81
2018-12-10T04:02:08.313Z,942.86
2018-12-10T04:03:08.364Z,942.95
2018-12-10T04:04:08.252Z,942.86
2018-12-10T04:05:08.236Z,943.01
2018-12-10T04:06:08.193Z,942.98
2018-12-10T04:07:08.169Z,943.02
2018-12-10T04:08:08.193Z,943.06
2018-12-10T04:09:08.142Z,942.90
2018-12-10T04:10:08.229Z,943.09
2018-12-10T04:11:08.141Z,943.00
2018-12-10T04:12:08.111Z,942.99
2018-12-10T04:13:08.110Z,943.09
2018-12-10T04:14:08.086Z,943.04
2018-12-10T04:15:08.092Z,942.97
2018-12-10T04:16:08.096Z,943.12
2018-12-10T04:17:08.061Z,943.04
2018-12-10T04:18:08.056Z,943.09
2018-12-10T04:19:08.027Z,943.18
2018-12-10T04:20:08.018Z,943.09
2018-12-10T04:21:08.031Z,943.15
2018-12-10T04:22:08.009Z,943.39
2018-12-10T04:23:09.089Z,943.27
2018-12-10T04:24:22.876Z,943.21
2018-12-10T04:25:08.173Z,943.22
2018-12-10T04:26:08.017Z,943.25
2018-12-10T04:27:08.027Z,943.28
2018-12-10T04:28:08.646Z,943.23
2018-12-10T04:29:07.975Z,943.37
2018-12-10T04:30:07.919Z,943.42
2018-12-10T04:31:07.904Z,943.35
2018-12-10T04:32:07.894Z,943.45
2018-12-10T04:33:07.898Z,943.49
2018-12-10T04:34:07.857Z,943.41
2018-12-10T04:35:07.868Z,943.41
2018-12-10T04:36:07.836Z,943.40
2018-12-10T04:37:07.822Z,943.40
2018-12-10T04:38:07.861Z,943.53
2018-12-10T04:39:17.540Z,943.57
2018-12-10T04:40:07.874Z,943.51
2018-12-10T04:41:07.870Z,943.53
2018-12-10T04:42:07.812Z,943.52
2018-12-10T04:43:07.886Z,943.54
2018-12-10T04:44:07.790Z,943.49
2018-12-10T04:45:17.511Z,943.69
2018-12-10T04:46:07.785Z,943.55
2018-12-10T04:47:07.752Z,943.56
2018-12-10T04:48:07.753Z,943.67
2018-12-10T04:49:07.813Z,943.63
2018-12-10T04:50:19.882Z,943.67
2018-12-10T04:51:17.778Z,943.63
2018-12-10T04:53:19.781Z,943.70
2018-12-10T04:54:19.816Z,943.80
2018-12-10T04:55:19.753Z,943.76
2018-12-10T04:56:19.866Z,943.67
2018-12-10T04:57:29.609Z,943.85
2018-12-10T04:58:19.698Z,943.68
2018-12-10T04:59:19.743Z,943.77
2018-12-10T05:00:20.639Z,943.71
2018-12-10T05:01:20.651Z,943.77
2018-12-10T05:02:29.119Z,943.85
2018-12-10T05:03:19.721Z,943.72
2018-12-10T05:04:19.668Z,943.83
2018-12-10T05:05:19.636Z,943.85
2018-12-10T05:06:29.167Z,943.92
2018-12-10T05:07:19.648Z,943.82
2018-12-10T05:08:19.675Z,943.93
2018-12-10T05:09:19.578Z,943.88
2018-12-10T05:10:19.635Z,943.88
2018-12-10T05:11:19.548Z,943.83
2018-12-10T05:12:19.542Z,943.87
2018-12-10T05:13:29.047Z,943.92
2018-12-10T05:15:31.695Z,943.91
2018-12-10T05:16:31.685Z,944.01
2018-12-10T05:17:31.665Z,943.79
2018-12-10T05:18:31.668Z,943.94
2018-12-10T05:19:31.527Z,944.00
2018-12-10T05:20:31.508Z,944.07
2018-12-10T05:21:31.522Z,944.02
2018-12-10T05:23:00.527Z,944.03
2018-12-10T05:23:31.486Z,944.08
2018-12-10T05:24:31.454Z,944.09
2018-12-10T05:25:31.507Z,944.04
2018-12-10T05:26:31.465Z,944.13
2018-12-10T05:27:31.493Z,944.30
2018-12-10T05:28:31.418Z,944.16
2018-12-10T05:29:41.020Z,944.15
2018-12-10T05:30:31.529Z,944.20
2018-12-10T05:31:31.484Z,944.17
2018-12-10T05:32:31.435Z,944.17
2018-12-10T05:33:31.542Z,944.17
2018-12-10T05:34:31.370Z,944.29
2018-12-10T05:35:31.389Z,944.25
2018-12-10T05:36:31.322Z,944.20
2018-12-10T05:37:31.357Z,944.19
2018-12-10T05:38:31.310Z,944.20
2018-12-10T05:39:31.311Z,944.31
2018-12-10T05:40:31.272Z,944.27
2018-12-10T05:41:31.298Z,944.26
2018-12-10T05:42:31.255Z,944.25
2018-12-10T05:43:31.253Z,944.35
2018-12-10T05:44:31.245Z,944.31
2018-12-10T05:45:31.280Z,944.55
2018-12-10T05:46:31.241Z,944.48
2018-12-10T05:47:31.205Z,944.43
2018-12-10T05:48:31.186Z,944.44
2018-12-10T05:49:31.176Z,944.43
2018-12-10T05:50:31.164Z,944.49
2018-12-10T05:51:39.843Z,944.44
2018-12-10T05:52:31.290Z,944.42
2018-12-10T05:53:31.212Z,944.60
2018-12-10T05:54:31.190Z,944.50
2018-12-10T05:55:31.321Z,944.46
2018-12-10T05:56:31.153Z,944.49
2018-12-10T05:57:31.090Z,944.51
2018-12-10T05:58:31.081Z,944.51
2018-12-10T05:59:31.082Z,944.50
2018-12-10T06:00:31.056Z,944.60
2018-12-10T06:01:31.053Z,944.67
2018-12-10T06:02:31.082Z,944.55
2018-12-10T06:03:31.024Z,944.57
2018-12-10T06:04:31.013Z,944.57
2018-12-10T06:05:42.088Z,944.50
2018-12-10T06:06:31.099Z,944.60
2018-12-10T06:07:41.873Z,944.67
2018-12-10T06:08:31.038Z,944.62
2018-12-10T06:09:31.081Z,944.65
2018-12-10T06:10:30.971Z,944.69
2018-12-10T06:11:30.930Z,944.71
2018-12-10T06:12:30.942Z,944.71
2018-12-10T06:13:30.947Z,944.71
2018-12-10T06:14:30.905Z,944.74
2018-12-10T06:15:30.954Z,944.74
2018-12-10T06:16:30.927Z,944.79
2018-12-10T06:17:30.884Z,944.73
2018-12-10T06:18:30.894Z,944.68
2018-12-10T06:19:30.870Z,944.72
2018-12-10T06:20:30.834Z,944.78
2018-12-10T06:21:30.822Z,944.76
2018-12-10T06:22:45.560Z,944.83
2018-12-10T06:23:40.352Z,944.89
2018-12-10T06:24:30.825Z,944.80
2018-12-10T06:25:30.938Z,944.93
2018-12-10T06:26:30.818Z,944.83
2018-12-10T06:27:42.687Z,944.81
2018-12-10T06:28:30.825Z,944.90
2018-12-10T06:29:30.769Z,944.85
2018-12-10T06:30:40.534Z,944.91
2018-12-10T06:31:30.807Z,944.92
2018-12-10T06:32:30.748Z,944.97
2018-12-10T06:33:30.759Z,945.00
2018-12-10T06:34:30.732Z,945.05
2018-12-10T06:35:30.682Z,944.95
2018-12-10T06:36:30.682Z,945.20
2018-12-10T06:37:37.532Z,944.97
2018-12-10T06:39:43.473Z,945.07
2018-12-10T06:40:43.389Z,945.01
2018-12-10T06:41:43.375Z,945.14
2018-12-10T06:42:43.351Z,945.19
2018-12-10T06:43:43.321Z,945.02
2018-12-10T06:44:43.387Z,945.07
2018-12-10T06:45:43.267Z,945.16
2018-12-10T06:46:43.235Z,945.08
2018-12-10T06:47:43.266Z,945.15
2018-12-10T06:48:43.215Z,945.20
2018-12-10T06:49:43.207Z,945.26
2018-12-10T06:50:51.857Z,945.19
2018-12-10T06:51:43.277Z,945.13
2018-12-10T06:52:53.935Z,945.16
2018-12-10T06:53:43.210Z,945.25
2018-12-10T06:54:43.203Z,945.17
2018-12-10T06:55:43.208Z,945.18
2018-12-10T06:56:43.163Z,945.25
2018-12-10T06:57:43.265Z,945.23
2018-12-10T06:58:43.130Z,945.20
2018-12-10T06:59:43.123Z,945.27
2018-12-10T07:00:43.074Z,945.25
2018-12-10T07:01:43.069Z,945.29
2018-12-10T07:02:43.106Z,945.30
2018-12-10T07:03:43.050Z,945.17
2018-12-10T07:04:43.057Z,945.23
2018-12-10T07:05:43.023Z,945.35
2018-12-10T07:06:43.011Z,945.31
2018-12-10T07:07:43.034Z,945.35
2018-12-10T07:08:42.995Z,945.30
2018-12-10T07:09:43.007Z,945.43
2018-12-10T07:10:42.968Z,945.48
2018-12-10T07:11:42.960Z,945.36
2018-12-10T07:12:52.998Z,945.45
2018-12-10T07:13:42.969Z,945.49
2018-12-10T07:14:42.990Z,945.54
2018-12-10T07:15:43.015Z,945.46
2018-12-10T07:16:42.979Z,945.46
2018-12-10T07:17:52.393Z,945.63
2018-12-10T07:18:42.969Z,945.54
2018-12-10T07:19:52.407Z,945.62
2018-12-10T07:20:42.914Z,945.51
2018-12-10T07:21:42.979Z,945.66
2018-12-10T07:22:42.907Z,945.62
2018-12-10T07:23:42.981Z,945.73
2018-12-10T07:24:42.838Z,945.65
2018-12-10T07:25:42.807Z,945.67
2018-12-10T07:26:51.511Z,945.68
2018-12-10T07:28:54.180Z,945.69
2018-12-10T07:30:03.835Z,945.66
2018-12-10T07:30:54.076Z,945.71
2018-12-10T07:31:54.047Z,945.79
2018-12-10T07:32:54.048Z,945.86
2018-12-10T07:33:54.065Z,945.78
2018-12-10T07:35:06.365Z,945.72
2018-12-10T07:36:04.652Z,945.89
2018-12-10T07:36:54.009Z,945.86
2018-12-10T07:37:54.094Z,945.74
2018-12-10T07:38:53.991Z,945.84
2018-12-10T07:39:54.025Z,945.82
2018-12-10T07:40:53.894Z,945.81
2018-12-10T07:41:53.871Z,945.86
2018-12-10T07:42:53.880Z,945.85
2018-12-10T07:43:53.867Z,945.81
2018-12-10T07:45:03.333Z,945.89
2018-12-10T07:45:53.886Z,945.87
2018-12-10T07:46:53.821Z,945.76
2018-12-10T07:47:53.863Z,945.82
2018-12-10T07:49:05.371Z,945.80
2018-12-10T07:50:02.497Z,945.87
2018-12-10T07:50:53.856Z,945.86
2018-12-10T07:51:53.834Z,945.89
2018-12-10T07:52:53.830Z,945.90
2018-12-10T07:53:53.795Z,945.88
2018-12-10T07:54:53.890Z,945.89
2018-12-10T07:55:53.734Z,945.96
2018-12-10T07:56:53.703Z,945.93
2018-12-10T07:57:53.713Z,945.88
2018-12-10T07:58:53.681Z,945.96
2018-12-10T07:59:53.672Z,946.02
2018-12-10T08:00:53.709Z,945.98
2018-12-10T08:01:53.651Z,945.98
2018-12-10T08:02:53.635Z,946.03
2018-12-10T08:03:53.634Z,946.08
2018-12-10T08:04:53.613Z,946.04
2018-12-10T08:05:53.634Z,946.09
2018-12-10T08:07:03.593Z,946.02
2018-12-10T08:09:04.991Z,946.15
2018-12-10T08:10:04.963Z,946.08
2018-12-10T08:11:04.908Z,946.19
2018-12-10T08:12:04.901Z,946.12
2018-12-10T08:13:04.926Z,946.08
2018-12-10T08:14:15.795Z,946.20
2018-12-10T08:15:04.846Z,946.21
2018-12-10T08:16:04.814Z,946.30
2018-12-10T08:17:04.871Z,946.18
2018-12-10T08:18:04.786Z,946.37
2018-12-10T08:19:15.484Z,946.33
2018-12-10T08:20:04.840Z,946.34
2018-12-10T08:21:04.756Z,946.33
2018-12-10T08:22:04.743Z,946.45
2018-12-10T08:23:04.911Z,946.31
2018-12-10T08:24:04.747Z,946.42
2018-12-10T08:25:04.665Z,946.41
2018-12-10T08:26:13.301Z,946.35
2018-12-10T08:27:09.383Z,946.37
2018-12-10T08:29:16.007Z,946.30
2018-12-10T08:30:16.008Z,946.31
2018-12-10T08:31:15.938Z,946.30
2018-12-10T08:32:25.381Z,946.36
2018-12-10T08:33:15.930Z,946.34
2018-12-10T08:34:24.508Z,946.32
2018-12-10T08:36:09.563Z,946.37
2018-12-10T08:37:18.131Z,946.47
2018-12-10T08:41:54.945Z,946.37
2018-12-10T08:42:53.892Z,946.50
2018-12-10T08:44:13.175Z,946.37
2018-12-10T08:46:05.996Z,946.44
2018-12-10T08:48:18.326Z,946.35
2018-12-10T08:50:30.300Z,946.36
2018-12-10T08:51:31.157Z,946.43
2018-12-10T08:52:30.116Z,946.43
2018-12-10T08:53:30.100Z,946.38
2018-12-10T08:54:56.049Z,946.41
2018-12-10T08:55:30.104Z,946.46
2018-12-10T08:56:30.140Z,946.35
2018-12-10T08:57:30.124Z,946.36
2018-12-10T08:58:30.092Z,946.48
2018-12-10T09:00:42.282Z,946.35
2018-12-10T09:01:42.165Z,946.37
2018-12-10T09:02:42.153Z,946.46
2018-12-10T09:03:42.136Z,946.40
2018-12-10T09:04:42.173Z,946.40
2018-12-10T09:05:42.115Z,946.44
2018-12-10T09:06:42.179Z,946.39
2018-12-10T09:07:57.043Z,946.33
2018-12-10T09:08:42.032Z,946.41
2018-12-10T09:09:51.538Z,946.39
2018-12-10T09:10:42.048Z,946.52
2018-12-10T09:11:42.001Z,946.50
2018-12-10T09:12:46.969Z,946.47
2018-12-10T09:14:53.387Z,946.43
2018-12-10T09:17:10.523Z,946.47
2018-12-10T09:18:10.492Z,946.50
2018-12-10T09:19:20.182Z,946.59
2018-12-10T09:20:24.781Z,946.60
2018-12-10T09:21:20.743Z,946.48
2018-12-10T09:22:10.402Z,946.53
2018-12-10T09:23:10.356Z,946.59
2018-12-10T09:24:10.324Z,946.55
2018-12-10T09:25:10.408Z,946.48
2018-12-10T09:26:10.373Z,946.52
2018-12-10T09:27:10.418Z,946.54
2018-12-10T09:28:10.257Z,946.66
2018-12-10T09:29:10.284Z,946.62
2018-12-10T09:30:10.234Z,946.56
2018-12-10T09:31:10.264Z,946.56
2018-12-10T09:32:10.241Z,946.54
2018-12-10T09:33:10.196Z,946.62
2018-12-10T09:34:10.188Z,946.59
2018-12-10T09:35:10.180Z,946.66
2018-12-10T09:36:10.158Z,946.75
2018-12-10T09:37:10.186Z,946.67
2018-12-10T09:38:10.232Z,946.55
2018-12-10T09:39:10.139Z,946.66
2018-12-10T09:40:21.554Z,946.70
2018-12-10T09:41:20.007Z,946.68
2018-12-10T09:42:10.179Z,946.73
2018-12-10T09:43:23.195Z,946.69
2018-12-10T09:44:20.528Z,946.61
2018-12-10T09:45:10.145Z,946.65
2018-12-10T09:46:10.110Z,946.70
2018-12-10T09:47:10.079Z,946.82
2018-12-10T09:48:10.104Z,946.63
2018-12-10T09:49:10.151Z,946.68
2018-12-10T09:50:10.035Z,946.63
2018-12-10T09:51:09.999Z,946.61
2018-12-10T09:52:10.019Z,946.58
2018-12-10T09:53:09.975Z,946.63
2018-12-10T09:54:09.986Z,946.62
2018-12-10T09:55:09.971Z,946.71
2018-12-10T09:56:09.946Z,946.68
2018-12-10T09:57:09.937Z,946.69
2018-12-10T09:58:09.922Z,946.77
2018-12-10T09:59:09.911Z,946.76
2018-12-10T10:00:09.906Z,946.79
2018-12-10T10:01:09.907Z,946.71
2018-12-10T10:02:12.438Z,946.75
2018-12-10T10:03:09.867Z,946.75
2018-12-10T10:04:09.855Z,946.81
2018-12-10T10:05:09.858Z,946.88
2018-12-10T10:06:09.829Z,946.77
2018-12-10T10:07:09.839Z,946.76
2018-12-10T10:08:09.812Z,946.76
2018-12-10T10:09:09.802Z,946.68
2018-12-10T10:10:09.818Z,946.74
2018-12-10T10:11:09.784Z,946.84
2018-12-10T10:12:09.770Z,946.80
2018-12-10T10:13:09.771Z,946.80
2018-12-10T10:14:09.747Z,946.76
2018-12-10T10:15:09.736Z,946.88
2018-12-10T10:16:09.755Z,946.83
2018-12-10T10:17:09.712Z,946.74
2018-12-10T10:18:09.701Z,946.82
2018-12-10T10:19:09.714Z,946.73
2018-12-10T10:20:09.687Z,946.69
2018-12-10T10:21:11.448Z,946.58
2018-12-10T10:22:09.744Z,946.69
2018-12-10T10:23:09.721Z,946.70
2018-12-10T10:24:09.640Z,946.77
2018-12-10T10:25:09.648Z,946.78
2018-12-10T10:26:09.619Z,946.75
2018-12-10T10:27:09.634Z,946.79
2018-12-10T10:28:09.595Z,946.68
2018-12-10T10:29:09.583Z,946.73
2018-12-10T10:30:09.572Z,946.70
2018-12-10T10:31:09.566Z,946.69
2018-12-10T10:32:09.580Z,946.69
2018-12-10T10:33:09.567Z,946.66
2018-12-10T10:34:09.529Z,946.67
2018-12-10T10:35:09.516Z,946.60
2018-12-10T10:36:09.504Z,946.70
2018-12-10T10:37:09.494Z,946.70
2018-12-10T10:38:09.502Z,946.72
2018-12-10T10:39:09.486Z,946.84
2018-12-10T10:40:09.465Z,946.66
2018-12-10T10:41:09.459Z,946.65
2018-12-10T10:42:09.452Z,946.65
2018-12-10T10:43:22.483Z,946.62
2018-12-10T10:44:09.506Z,946.50
2018-12-10T10:45:09.441Z,946.46
2018-12-10T10:46:21.349Z,946.48
2018-12-10T10:47:19.938Z,946.67
2018-12-10T10:48:19.122Z,946.48
2018-12-10T10:49:09.459Z,946.60
2018-12-10T10:50:09.403Z,946.51
2018-12-10T10:51:09.394Z,946.55
2018-12-10T10:52:09.475Z,946.45
2018-12-10T10:53:09.371Z,946.70
2018-12-10T10:54:09.310Z,946.64
2018-12-10T10:55:09.395Z,946.65
2018-12-10T10:56:09.302Z,946.70
2018-12-10T10:57:09.279Z,946.64
2018-12-10T10:58:09.285Z,946.66
2018-12-10T10:59:09.259Z,946.56
2018-12-10T11:00:09.246Z,946.64
2018-12-10T11:01:09.278Z,946.71
2018-12-10T11:02:09.220Z,946.65
2018-12-10T11:03:09.211Z,946.68
2018-12-10T11:04:10.579Z,946.70
2018-12-10T11:05:09.194Z,946.71
2018-12-10T11:06:09.203Z,946.69
2018-12-10T11:07:09.195Z,946.77
2018-12-10T11:08:09.152Z,946.76
2018-12-10T11:09:15.339Z,946.82
2018-12-10T11:10:10.142Z,946.83
2018-12-10T11:11:09.116Z,946.76
2018-12-10T11:12:09.162Z,946.88
2018-12-10T11:13:09.096Z,946.77
2018-12-10T11:14:17.774Z,946.79
2018-12-10T11:15:09.156Z,946.73
2018-12-10T11:16:09.070Z,946.84
2018-12-10T11:17:09.164Z,946.73
2018-12-10T11:18:09.132Z,946.71
2018-12-10T11:19:09.148Z,946.84
2018-12-10T11:20:09.034Z,946.85
2018-12-10T11:21:09.016Z,947.00
2018-12-10T11:22:09.013Z,946.78
2018-12-10T11:23:30.042Z,946.82
2018-12-10T11:24:08.974Z,946.78
2018-12-10T11:25:08.980Z,946.68
2018-12-10T11:26:08.942Z,946.81
2018-12-10T11:27:08.933Z,946.67
2018-12-10T11:28:08.934Z,946.70
2018-12-10T11:29:08.919Z,946.72
2018-12-10T11:30:08.924Z,946.72
2018-12-10T11:31:09.587Z,946.71
2018-12-10T11:32:08.882Z,946.79
2018-12-10T11:33:08.870Z,946.75
2018-12-10T11:34:08.886Z,946.69
2018-12-10T11:35:08.848Z,946.71
2018-12-10T11:36:08.852Z,946.69
2018-12-10T11:37:08.821Z,946.66
2018-12-10T11:38:08.823Z,946.78
2018-12-10T11:39:08.799Z,946.92
2018-12-10T11:40:08.822Z,946.80
2018-12-10T11:41:08.779Z,946.75
2018-12-10T11:42:08.787Z,946.68
2018-12-10T11:43:08.755Z,946.70
2018-12-10T11:44:08.746Z,946.66
2018-12-10T11:45:08.736Z,946.73
2018-12-10T11:46:08.749Z,946.85
2018-12-10T11:47:13.032Z,946.77
2018-12-10T11:48:08.715Z,946.78
2018-12-10T11:49:08.687Z,946.74
2018-12-10T11:50:08.689Z,946.91
2018-12-10T11:51:08.667Z,946.77
2018-12-10T11:52:08.688Z,946.85
2018-12-10T11:53:10.653Z,946.69
2018-12-10T11:54:08.646Z,946.82
2018-12-10T11:55:08.644Z,946.84
2018-12-10T11:56:08.615Z,946.70
2018-12-10T11:57:08.599Z,946.75
2018-12-10T11:58:08.629Z,946.75
2018-12-10T11:59:08.575Z,946.78
2018-12-10T12:00:08.584Z,946.70
2018-12-10T12:01:08.556Z,946.65
2018-12-10T12:02:08.548Z,946.68
2018-12-10T12:03:08.536Z,946.69
2018-12-10T12:04:08.529Z,946.63
2018-12-10T12:05:08.510Z,946.64
2018-12-10T12:06:08.509Z,946.60
2018-12-10T12:07:08.532Z,946.66
2018-12-10T12:08:08.481Z,946.71
2018-12-10T12:09:08.488Z,946.60
2018-12-10T12:10:08.453Z,946.64
2018-12-10T12:11:08.442Z,946.60
2018-12-10T12:12:08.450Z,946.59
2018-12-10T12:13:08.423Z,946.65
2018-12-10T12:14:08.405Z,946.68
2018-12-10T12:15:08.422Z,946.66
2018-12-10T12:16:08.388Z,946.68
2018-12-10T12:17:08.372Z,946.58
2018-12-10T12:18:08.381Z,946.67
2018-12-10T12:19:11.509Z,946.66
2018-12-10T12:20:08.341Z,946.66
2018-12-10T12:21:08.343Z,946.68
2018-12-10T12:22:08.314Z,946.63
2018-12-10T12:23:08.309Z,946.66
2018-12-10T12:24:08.318Z,946.66
2018-12-10T12:25:08.282Z,946.75
2018-12-10T12:26:08.304Z,946.71
2018-12-10T12:27:08.268Z,946.74
2018-12-10T12:28:08.257Z,946.64
2018-12-10T12:29:08.244Z,946.61
2018-12-10T12:30:08.246Z,946.63
2018-12-10T12:31:08.221Z,946.59
2018-12-10T12:32:08.242Z,946.63
2018-12-10T12:33:08.197Z,946.64
2018-12-10T12:34:08.184Z,946.62
2018-12-10T12:35:08.173Z,946.63
2018-12-10T12:36:08.186Z,946.55
2018-12-10T12:37:08.153Z,946.57
2018-12-10T12:38:08.163Z,946.60
2018-12-10T12:39:08.133Z,946.64
2018-12-10T12:40:08.122Z,946.69
2018-12-10T12:41:08.112Z,946.61
2018-12-10T12:42:08.119Z,946.58
2018-12-10T12:43:15.758Z,946.46
2018-12-10T12:44:09.074Z,946.55
2018-12-10T12:45:08.064Z,946.57
2018-12-10T12:46:08.053Z,946.65
2018-12-10T12:47:08.046Z,946.63
2018-12-10T12:48:08.053Z,946.53
2018-12-10T12:49:08.050Z,946.61
2018-12-10T12:50:08.011Z,946.55